Time;durP1;ratioP1;P1;durP2;ratioP2;P2;SDS_P1;SDS_P2;PMS_P1;PMS_P2;Temp;Humidity;BMP_temperature;BMP_pressure;BME280_temperature;BME280_humidity;BME280_pressure;Samples;Min_cycle;Max_cycle;Signal;HPM_P1;HPM_P2
2022/07/30 00:00:15;;;;;;;14.63;3.95;;;;;;;16.63;100.00;100844.66;5021999;28;20056;-87
2022/07/30 00:02:51;;;;;;;11.80;3.30;;;;;;;16.62;100.00;100835.03;5015770;28;20111;-88
2022/07/30 00:05:18;;;;;;;10.70;3.08;;;;;;;16.72;100.00;100843.25;5012127;28;20143;-89
2022/07/30 00:07:45;;;;;;;16.10;3.47;;;;;;;16.72;100.00;100828.22;5018987;28;20400;-88
2022/07/30 00:10:11;;;;;;;19.52;4.07;;;;;;;16.49;100.00;100835.78;5019609;28;20072;-88
2022/07/30 00:12:38;;;;;;;14.05;3.63;;;;;;;16.63;100.00;100827.00;5012168;28;20049;-88
2022/07/30 00:15:06;;;;;;;14.48;3.03;;;;;;;16.71;100.00;100831.81;5015471;28;20451;-88
2022/07/30 00:17:32;;;;;;;15.02;4.53;;;;;;;16.52;100.00;100832.94;5012138;28;20053;-88
2022/07/30 00:20:00;;;;;;;13.00;3.58;;;;;;;16.74;100.00;100838.72;5013334;28;20050;-88
2022/07/30 00:22:29;;;;;;;11.52;3.67;;;;;;;16.73;100.00;100829.91;5012194;28;20088;-88
2022/07/30 00:24:56;;;;;;;18.05;5.22;;;;;;;16.59;100.00;100808.78;5011375;28;20054;-88
2022/07/30 00:27:23;;;;;;;12.52;3.92;;;;;;;16.66;100.00;100823.31;5011812;28;20129;-88
2022/07/30 00:29:49;;;;;;;9.85;3.00;;;;;;;16.73;100.00;100800.81;5012402;28;20045;-88
2022/07/30 00:32:16;;;;;;;10.45;3.35;;;;;;;16.83;100.00;100809.91;5012583;28;20057;-88
2022/07/30 00:34:43;;;;;;;12.00;3.08;;;;;;;16.92;100.00;100812.94;5015286;28;20057;-87
2022/07/30 00:37:10;;;;;;;14.40;3.90;;;;;;;16.80;100.00;100803.94;5002005;28;20068;-88
2022/07/30 00:39:37;;;;;;;10.90;3.10;;;;;;;16.80;100.00;100823.31;5011450;28;20077;-88
2022/07/30 00:42:03;;;;;;;11.95;3.15;;;;;;;16.91;100.00;100813.88;5011694;28;20049;-88
2022/07/30 00:44:30;;;;;;;11.70;3.90;;;;;;;16.84;100.00;100816.91;5009478;28;20480;-88
2022/07/30 00:46:57;;;;;;;15.00;4.15;;;;;;;16.78;100.00;100800.56;5011371;28;20052;-88
2022/07/30 00:49:25;;;;;;;10.90;3.78;;;;;;;16.67;100.00;100807.34;5011254;28;20140;-88
2022/07/30 00:51:52;;;;;;;11.55;3.20;;;;;;;16.75;100.00;100801.59;5027514;28;20038;-88
2022/07/30 00:54:20;;;;;;;11.98;3.20;;;;;;;16.64;100.00;100794.34;5033883;28;20055;-88
2022/07/30 00:56:47;;;;;;;9.52;3.38;;;;;;;16.85;100.00;100789.50;5012207;28;20137;-88
2022/07/30 00:59:14;;;;;;;9.52;2.95;;;;;;;16.87;100.00;100803.53;5010971;28;20041;-88
2022/07/30 01:01:41;;;;;;;11.80;3.42;;;;;;;17.08;100.00;100797.78;5011122;28;20061;-89
2022/07/30 01:04:10;;;;;;;10.82;3.50;;;;;;;16.79;100.00;100779.31;5019525;28;20045;-88
2022/07/30 01:06:38;;;;;;;11.27;3.40;;;;;;;16.59;100.00;100767.34;5016652;28;20069;-88
2022/07/30 01:09:06;;;;;;;13.85;3.72;;;;;;;16.82;100.00;100786.19;5012609;28;20045;-88
2022/07/30 01:11:37;;;;;;;16.65;4.30;;;;;;;16.79;100.00;100779.31;5027470;28;20054;-88
2022/07/30 01:14:06;;;;;;;12.52;3.10;;;;;;;16.86;100.00;100770.06;5010736;28;20046;-88
2022/07/30 01:16:35;;;;;;;7.43;2.15;;;;;;;16.97;100.00;100771.19;5012596;28;20751;-88
2022/07/30 01:22:02;;;;;;;11.60;2.72;;;;;;;16.99;100.00;100756.06;5012834;28;20050;-88
2022/07/30 01:24:37;;;;;;;8.55;2.53;;;;;;;17.07;100.00;100767.84;5012742;28;20058;-88
2022/07/30 01:27:06;;;;;;;10.95;2.65;;;;;;;16.85;100.00;100765.72;5030750;28;20050;-88
2022/07/30 01:29:35;;;;;;;7.85;2.33;;;;;;;17.10;100.00;100760.66;5010884;28;20143;-88
2022/07/30 01:32:03;;;;;;;10.05;3.03;;;;;;;17.08;100.00;100740.44;5010817;28;20046;-88
2022/07/30 01:34:33;;;;;;;8.95;2.30;;;;;;;17.06;100.00;100741.50;5011026;28;20050;-88
2022/07/30 01:37:02;;;;;;;12.02;2.63;;;;;;;16.85;100.00;100738.44;5027054;28;20061;-88
2022/07/30 01:39:30;;;;;;;10.02;2.53;;;;;;;16.93;100.00;100730.88;5010993;28;20081;-88
2022/07/30 01:41:59;;;;;;;10.38;3.00;;;;;;;17.06;100.00;100733.56;5010939;28;20056;-88
2022/07/30 01:44:27;;;;;;;11.55;2.95;;;;;;;16.92;100.00;100730.97;5017813;28;20056;-88
2022/07/30 01:46:55;;;;;;;10.40;2.65;;;;;;;17.07;100.00;100712.31;5010453;28;20054;-88
2022/07/30 01:49:24;;;;;;;13.02;3.00;;;;;;;16.89;100.00;100711.72;5028653;28;20117;-88
2022/07/30 01:51:53;;;;;;;9.02;2.72;;;;;;;16.86;100.00;100717.19;5011251;28;20077;-88
2022/07/30 01:54:22;;;;;;;6.47;2.00;;;;;;;16.82;100.00;100709.50;5012826;28;20046;-87
2022/07/30 01:56:54;;;;;;;8.45;2.80;;;;;;;16.73;100.00;100694.25;5009770;28;20045;-87
2022/07/30 01:59:23;;;;;;;8.30;1.98;;;;;;;17.13;100.00;100712.84;5010786;28;20050;-88
2022/07/30 02:01:50;;;;;;;8.13;2.25;;;;;;;16.99;100.00;100701.38;5012372;28;20057;-87
2022/07/30 02:04:17;;;;;;;8.45;2.17;;;;;;;17.14;100.00;100704.81;5016544;28;20041;-88
2022/07/30 02:07:00;;;;;;;7.22;1.77;;;;;;;17.10;100.00;100707.75;5010837;28;20046;-88
2022/07/30 02:09:35;;;;;;;10.00;2.17;;;;;;;17.04;100.00;100695.78;5011371;28;20054;-87
2022/07/30 02:14:55;;;;;;;7.78;2.38;;;;;;;16.91;100.00;100706.31;5014296;28;20061;-88
2022/07/30 02:17:31;;;;;;;7.03;2.28;;;;;;;17.02;100.00;100713.56;5014427;28;20076;-88
2022/07/30 02:20:07;;;;;;;5.50;2.10;;;;;;;16.70;100.00;100653.84;5013267;28;20045;-87
2022/07/30 02:22:38;;;;;;;13.02;3.58;;;;;;;17.02;100.00;100716.22;5014922;28;20471;-87
2022/07/30 02:25:07;;;;;;;9.85;3.25;;;;;;;16.26;100.00;100646.94;5014043;28;20400;-86
2022/07/30 02:27:37;;;;;;;14.48;2.92;;;;;;;16.41;100.00;100652.22;5014095;28;20057;-88
2022/07/30 02:30:06;;;;;;;9.35;2.63;;;;;;;16.65;100.00;100669.16;5015582;28;20054;-88
2022/07/30 02:32:36;;;;;;;10.32;3.08;;;;;;;16.41;100.00;100662.78;5014331;28;20056;-88
2022/07/30 02:35:13;;;;;;;12.98;4.03;;;;;;;16.19;100.00;100692.34;5017020;28;20073;-88
2022/07/30 02:37:41;;;;;;;12.40;3.10;;;;;;;16.36;100.00;100702.72;5014150;28;20052;-88
2022/07/30 02:40:14;;;;;;;9.55;2.70;;;;;;;16.61;100.00;100701.16;5015509;28;20057;-87
2022/07/30 02:42:44;;;;;;;13.15;3.83;;;;;;;16.36;100.00;100693.91;5014130;28;20084;-87
2022/07/30 02:45:11;;;;;;;9.82;2.95;;;;;;;16.45;100.00;100691.56;5016956;28;20057;-87
2022/07/30 02:47:39;;;;;;;12.35;3.08;;;;;;;16.46;100.00;100695.88;5015614;28;20050;-87
2022/07/30 02:50:08;;;;;;;7.82;2.67;;;;;;;16.16;100.00;100701.28;5014118;28;20050;-87
2022/07/30 02:52:39;;;;;;;9.98;2.83;;;;;;;16.17;100.00;100691.59;5013839;28;20075;-87
2022/07/30 02:55:08;;;;;;;11.70;3.25;;;;;;;16.28;100.00;100692.59;5021561;28;20673;-87
2022/07/30 02:57:36;;;;;;;8.70;2.40;;;;;;;16.26;100.00;100680.44;5013889;28;20065;-87
2022/07/30 03:00:10;;;;;;;10.80;2.75;;;;;;;16.33;100.00;100687.03;5029365;28;20092;-89
2022/07/30 03:02:39;;;;;;;15.82;3.50;;;;;;;16.40;100.00;100676.94;5014268;28;20054;-87
2022/07/30 03:05:10;;;;;;;10.50;2.83;;;;;;;16.19;100.00;100687.06;5013449;28;20049;-86
2022/07/30 03:07:39;;;;;;;15.75;3.65;;;;;;;16.13;100.00;100689.13;5014761;28;20046;-86
2022/07/30 03:10:06;;;;;;;12.80;2.78;;;;;;;16.24;100.00;100688.47;5013378;28;20053;-86
2022/07/30 03:12:36;;;;;;;9.27;2.30;;;;;;;16.24;100.00;100677.06;5014442;28;20057;-87
2022/07/30 03:15:03;;;;;;;8.75;2.55;;;;;;;16.19;100.00;100677.34;5024101;28;20061;-86
2022/07/30 03:17:37;;;;;;;6.97;2.00;;;;;;;16.13;100.00;100678.56;5014832;28;20412;-86
2022/07/30 03:20:08;;;;;;;12.35;3.65;;;;;;;16.01;100.00;100681.97;5011121;28;20468;-86
2022/07/30 03:22:42;;;;;;;9.65;2.60;;;;;;;16.01;100.00;100660.84;5003121;28;20400;-87
2022/07/30 03:25:11;;;;;;;17.73;3.50;;;;;;;15.86;100.00;100646.78;5013773;28;20050;-87
2022/07/30 03:27:39;;;;;;;11.10;3.10;;;;;;;15.99;100.00;100659.22;5012962;28;20412;-87
2022/07/30 03:30:07;;;;;;;15.70;4.07;;;;;;;15.74;100.00;100663.31;5013964;28;20056;-87
2022/07/30 03:32:35;;;;;;;15.15;4.43;;;;;;;15.76;100.00;100669.41;5012336;28;20058;-87
2022/07/30 03:35:03;;;;;;;8.55;2.60;;;;;;;15.70;100.00;100644.19;5016537;28;20076;-87
2022/07/30 03:37:39;;;;;;;9.40;3.30;;;;;;;15.88;100.00;100638.75;5012849;28;20056;-87
2022/07/30 03:40:07;;;;;;;11.02;3.00;;;;;;;15.87;100.00;100637.06;5012945;28;20046;-87
2022/07/30 03:42:35;;;;;;;8.10;2.88;;;;;;;15.79;100.00;100631.41;5012668;28;20476;-87
2022/07/30 03:45:06;;;;;;;13.23;3.45;;;;;;;15.87;100.00;100637.06;5011246;28;20054;-87
2022/07/30 03:47:37;;;;;;;9.05;2.65;;;;;;;15.83;100.00;100628.50;5013148;28;20065;-88
2022/07/30 03:50:05;;;;;;;10.48;2.88;;;;;;;15.91;100.00;100617.44;5010962;28;20042;-87
2022/07/30 03:52:34;;;;;;;9.43;3.10;;;;;;;15.77;100.00;100636.78;5009484;28;20635;-87
2022/07/30 03:55:02;;;;;;;6.97;2.83;;;;;;;15.93;100.00;100631.41;5017442;28;20049;-88
2022/07/30 03:57:29;;;;;;;11.93;3.13;;;;;;;15.81;100.00;100625.09;5004881;28;20397;-87
2022/07/30 03:59:56;;;;;;;15.13;3.17;;;;;;;15.77;100.00;100625.38;5012817;28;20042;-87
2022/07/30 04:02:23;;;;;;;12.32;4.15;;;;;;;15.55;100.00;100626.66;5012696;28;20054;-87
2022/07/30 04:04:50;;;;;;;13.27;3.78;;;;;;;15.56;100.00;100621.28;5021545;28;20046;-87
2022/07/30 04:07:17;;;;;;;12.82;4.60;;;;;;;15.55;100.00;100622.22;5013106;28;20402;-87
2022/07/30 04:09:44;;;;;;;10.98;4.90;;;;;;;15.70;100.00;100614.31;5013246;28;20053;-88
2022/07/30 04:12:12;;;;;;;8.50;3.03;;;;;;;15.61;100.00;100605.16;5011675;28;20045;-87
2022/07/30 04:14:42;;;;;;;15.98;4.15;;;;;;;15.63;100.00;100605.06;5014495;28;20058;-87
2022/07/30 04:17:14;;;;;;;9.10;3.33;;;;;;;15.73;100.00;100598.28;5002734;28;20065;-87
2022/07/30 04:19:52;;;;;;;14.02;5.03;;;;;;;15.67;100.00;100602.16;5024570;28;20543;-88
2022/07/30 04:22:32;;;;;;;14.02;5.22;;;;;;;15.60;100.00;100613.16;5013760;28;20054;-86
2022/07/30 04:25:01;;;;;;;12.70;4.22;;;;;;;15.63;100.00;100600.63;5024721;28;20046;-87
2022/07/30 04:27:30;;;;;;;9.30;3.65;;;;;;;15.76;100.00;100592.88;5011651;28;20500;-87
2022/07/30 04:29:57;;;;;;;13.02;4.20;;;;;;;15.65;100.00;100595.25;5011560;28;20137;-88
2022/07/30 04:32:24;;;;;;;13.05;4.80;;;;;;;15.81;100.00;100596.06;5012527;28;20425;-87
2022/07/30 04:34:54;;;;;;;10.25;4.63;;;;;;;15.74;100.00;100610.53;5014842;28;20137;-87
2022/07/30 04:37:23;;;;;;;14.60;5.07;;;;;;;15.62;100.00;100591.03;5011743;28;20045;-87
2022/07/30 04:39:53;;;;;;;13.13;4.40;;;;;;;15.68;100.00;100592.44;5011211;28;20049;-87
2022/07/30 04:42:21;;;;;;;9.73;4.20;;;;;;;15.63;100.00;100608.53;5011952;28;20400;-87
2022/07/30 04:44:48;;;;;;;13.60;4.22;;;;;;;15.64;100.00;100599.69;5017722;28;20050;-87
2022/07/30 04:47:16;;;;;;;10.57;4.13;;;;;;;15.68;100.00;100597.72;5028159;28;20424;-87
2022/07/30 04:49:44;;;;;;;11.15;3.47;;;;;;;15.64;100.00;100589.13;5011448;28;20050;-87
2022/07/30 04:52:12;;;;;;;9.02;3.30;;;;;;;15.49;100.00;100597.97;5012166;28;20397;-87
2022/07/30 04:54:56;;;;;;;13.20;3.80;;;;;;;15.67;100.00;100606.56;5009911;28;20054;-87
2022/07/30 04:57:25;;;;;;;8.15;2.72;;;;;;;15.78;100.00;100604.16;5003382;28;20050;-88
2022/07/30 04:59:52;;;;;;;7.95;2.85;;;;;;;15.66;100.00;100591.69;5011098;28;20053;-87
2022/07/30 05:02:21;;;;;;;7.13;3.22;;;;;;;15.62;100.00;100608.66;5012757;28;20507;-88
2022/07/30 05:04:48;;;;;;;9.55;3.55;;;;;;;15.36;100.00;100589.97;5021594;28;20080;-87
2022/07/30 05:07:17;;;;;;;10.50;3.20;;;;;;;15.45;100.00;100589.41;5011595;28;20046;-87
2022/07/30 05:09:47;;;;;;;13.75;4.45;;;;;;;15.39;100.00;100587.16;5011517;28;20048;-87
2022/07/30 05:12:14;;;;;;;10.07;4.07;;;;;;;15.53;100.00;100583.69;5010958;28;20056;-86
2022/07/30 05:14:41;;;;;;;12.63;4.75;;;;;;;15.42;100.00;100586.09;5014197;28;20488;-86
2022/07/30 05:17:13;;;;;;;13.60;4.55;;;;;;;15.28;100.00;100587.78;5012240;28;20502;-86
2022/07/30 05:19:40;;;;;;;9.73;3.75;;;;;;;15.57;100.00;100583.38;5011308;28;20056;-86
2022/07/30 05:22:07;;;;;;;11.80;3.80;;;;;;;15.43;100.00;100583.38;5011856;28;20488;-86
2022/07/30 05:24:33;;;;;;;8.70;3.35;;;;;;;15.55;100.00;100571.25;5010659;28;20050;-86
2022/07/30 05:27:00;;;;;;;8.73;4.13;;;;;;;15.52;100.00;100590.72;5012073;28;20054;-85
2022/07/30 05:29:28;;;;;;;8.75;3.17;;;;;;;15.60;100.00;100585.00;5011411;28;20054;-86
2022/07/30 05:31:55;;;;;;;7.65;2.88;;;;;;;15.56;100.00;100584.34;5011330;28;20057;-87
2022/07/30 05:34:28;;;;;;;16.08;4.22;;;;;;;15.59;100.00;100590.38;5010750;28;20149;-86
2022/07/30 05:36:54;;;;;;;9.95;3.63;;;;;;;15.55;100.00;100580.00;5007691;28;20064;-86
2022/07/30 05:39:21;;;;;;;11.25;4.47;;;;;;;15.41;100.00;100581.78;5010893;28;20046;-86
2022/07/30 05:41:48;;;;;;;9.60;4.13;;;;;;;15.53;100.00;100581.88;5010559;28;20049;-86
2022/07/30 05:44:15;;;;;;;13.23;4.55;;;;;;;15.36;100.00;100592.59;5013661;28;20050;-86
2022/07/30 05:46:48;;;;;;;8.57;3.58;;;;;;;15.45;100.00;100580.66;5015113;28;20411;-86
2022/07/30 05:49:14;;;;;;;13.73;3.97;;;;;;;15.63;100.00;100581.31;5014682;28;20052;-87
2022/07/30 05:51:42;;;;;;;10.85;4.03;;;;;;;15.48;100.00;100560.19;5016630;28;20058;-87
2022/07/30 05:54:10;;;;;;;10.82;4.05;;;;;;;15.49;100.00;100563.69;5018557;28;20041;-87
2022/07/30 05:56:37;;;;;;;10.73;3.92;;;;;;;15.63;100.00;100582.16;5014958;28;20049;-87
2022/07/30 05:59:03;;;;;;;7.93;2.83;;;;;;;15.52;100.00;100569.63;5015350;28;20050;-87
2022/07/30 06:01:30;;;;;;;8.57;3.22;;;;;;;15.63;100.00;100563.69;5015038;28;20395;-87
2022/07/30 06:03:57;;;;;;;8.40;3.40;;;;;;;15.53;100.00;100581.88;5019411;28;20046;-87
2022/07/30 06:06:24;;;;;;;17.75;4.00;;;;;;;15.46;100.00;100567.38;5017308;28;20042;-87
2022/07/30 06:08:50;;;;;;;12.20;3.72;;;;;;;15.50;100.00;100570.66;5013936;28;20046;-87
2022/07/30 06:11:17;;;;;;;12.13;4.15;;;;;;;15.65;100.00;100569.75;5008018;28;20049;-87
2022/07/30 06:13:44;;;;;;;12.13;4.28;;;;;;;15.09;100.00;100537.94;5021664;28;20077;-87
2022/07/30 06:16:11;;;;;;;10.40;3.65;;;;;;;15.20;100.00;100529.38;5020238;28;20049;-86
2022/07/30 06:18:37;;;;;;;9.15;3.17;;;;;;;15.21;100.00;100527.56;5016659;28;20057;-86
2022/07/30 06:21:05;;;;;;;13.40;3.50;;;;;;;15.55;100.00;100572.06;5015598;28;20404;-87
2022/07/30 06:23:31;;;;;;;13.45;3.63;;;;;;;15.25;100.00;100524.66;5019233;28;20056;-87
2022/07/30 06:25:58;;;;;;;17.40;4.43;;;;;;;15.60;100.00;100576.22;5023106;28;20054;-87
2022/07/30 06:28:25;;;;;;;9.23;4.00;;;;;;;15.23;100.00;100546.78;5032330;28;20438;-86
2022/07/30 06:31:07;;;;;;;11.50;3.88;;;;;;;15.22;100.00;100527.47;5016153;28;20515;-87
2022/07/30 06:33:34;;;;;;;13.48;5.13;;;;;;;15.42;100.00;100563.19;5018137;28;20049;-87
2022/07/30 06:36:01;;;;;;;16.75;5.05;;;;;;;15.15;100.00;100547.25;5014102;28;20064;-87
2022/07/30 06:38:28;;;;;;;14.35;4.57;;;;;;;15.26;100.00;100525.50;5010184;28;20133;-87
2022/07/30 06:40:55;;;;;;;14.18;5.85;;;;;;;15.21;100.00;100546.91;5016547;28;20052;-87
2022/07/30 06:43:28;;;;;;;;;;;;;;;15.72;100.00;100580.75;5021325;28;20580;-87
2022/07/30 06:45:55;;;;;;;18.17;5.53;;;;;;;15.60;100.00;100582.38;5016389;28;19921;-87
2022/07/30 06:48:22;;;;;;;16.77;5.60;;;;;;;15.52;100.00;100571.41;5010028;28;20137;-86
2022/07/30 06:50:48;;;;;;;16.80;4.78;;;;;;;15.55;100.00;100572.06;5003161;28;20112;-87
2022/07/30 06:53:15;;;;;;;16.92;6.03;;;;;;;15.48;100.00;100552.28;5017646;28;20715;-87
2022/07/30 06:55:42;;;;;;;16.02;5.50;;;;;;;15.37;100.00;100555.56;5016423;28;20060;-87
2022/07/30 06:58:09;;;;;;;16.85;5.88;;;;;;;15.61;100.00;100564.72;5012740;28;20054;-86
2022/07/30 07:00:36;;;;;;;15.68;6.28;;;;;;;15.82;100.00;100579.28;5014830;28;20524;-87
2022/07/30 07:03:03;;;;;;;12.07;4.30;;;;;;;15.72;100.00;100542.03;5018614;28;20053;-87
2022/07/30 07:05:35;;;;;;;11.38;4.70;;;;;;;15.77;100.00;100530.34;5016244;28;20447;-87
2022/07/30 07:08:02;;;;;;;16.63;5.25;;;;;;;15.61;100.00;100510.16;5006567;28;20056;-87
2022/07/30 07:10:29;;;;;;;15.70;7.00;;;;;;;15.76;100.00;100537.44;5013376;28;20042;-88
2022/07/30 07:12:55;;;;;;;16.42;5.40;;;;;;;15.80;100.00;100544.19;5014478;28;20084;-87
2022/07/30 07:15:22;;;;;;;16.65;6.22;;;;;;;15.58;100.00;100526.16;5011267;28;20068;-88
2022/07/30 07:18:04;;;;;;;14.85;5.20;;;;;;;15.84;100.00;100558.06;5015332;28;20442;-87
2022/07/30 07:20:31;;;;;;;17.75;6.82;;;;;;;16.06;100.00;100578.66;5018960;28;20078;-87
2022/07/30 07:22:58;;;;;;;15.80;4.10;;;;;;;15.98;100.00;100557.19;5000668;28;20045;-87
2022/07/30 07:25:25;;;;;;;13.02;4.22;;;;;;;16.13;100.00;100558.88;5013913;28;20045;-87
2022/07/30 07:27:52;;;;;;;17.20;6.38;;;;;;;16.01;100.00;100539.38;5009104;28;20061;-88
2022/07/30 07:30:40;;;;;;;14.50;4.47;;;;;;;15.98;100.00;100534.28;5029848;28;20056;-87
2022/07/30 07:33:08;;;;;;;14.63;4.82;;;;;;;16.36;100.00;100562.69;5012665;28;20055;-87
2022/07/30 07:35:35;;;;;;;11.98;4.60;;;;;;;16.13;100.00;100516.63;5004052;28;20053;-89
2022/07/30 07:38:16;;;;;;;18.48;6.03;;;;;;;16.39;100.00;100567.75;5016147;28;20060;-88
2022/07/30 07:40:43;;;;;;;15.80;4.75;;;;;;;16.32;100.00;100535.63;5007944;28;20092;-89
2022/07/30 07:43:10;;;;;;;13.57;5.57;;;;;;;16.33;100.00;100536.44;5015979;28;20056;-88
2022/07/30 07:45:38;;;;;;;15.50;6.30;;;;;;;16.39;100.00;100522.00;5014870;28;20049;-88
2022/07/30 07:48:05;;;;;;;15.80;5.53;;;;;;;16.52;100.00;100549.31;5006928;28;20050;-88
2022/07/30 07:50:32;;;;;;;14.95;5.70;;;;;;;16.44;100.00;100538.38;5023747;28;20521;-87
2022/07/30 07:52:59;;;;;;;11.88;4.82;;;;;;;16.66;100.00;100570.41;5003182;28;20046;-88
2022/07/30 07:55:26;;;;;;;12.38;4.95;;;;;;;16.56;100.00;100523.53;5037952;28;20048;-88
2022/07/30 07:57:53;;;;;;;11.10;4.60;;;;;;;16.70;100.00;100521.66;5013007;28;20056;-88
2022/07/30 08:00:20;;;;;;;9.93;3.63;;;;;;;16.58;100.00;100482.00;5011687;28;20054;-88
2022/07/30 08:02:47;;;;;;;10.55;3.33;;;;;;;16.37;100.00;100442.81;5011696;28;20058;-88
2022/07/30 08:05:15;;;;;;;13.65;4.35;;;;;;;17.10;100.00;100525.25;5035226;28;20386;-88
2022/07/30 08:07:42;;;;;;;12.38;4.10;;;;;;;16.44;100.00;100428.25;5015027;28;20092;-87
2022/07/30 08:10:12;;;;;;;13.23;4.85;;;;;;;17.03;100.00;100514.22;5009249;28;20046;-88
2022/07/30 08:12:39;;;;;;;12.82;4.50;;;;;;;16.87;100.00;100486.19;5012652;28;20049;-87
2022/07/30 08:15:08;;;;;;;14.05;4.40;;;;;;;16.82;100.00;100497.97;5013002;28;20082;-88
2022/07/30 08:17:42;;;;;;;10.43;3.90;;;;;;;17.19;100.00;100537.81;5012287;28;20056;-88
2022/07/30 08:20:10;;;;;;;9.20;3.63;;;;;;;17.03;100.00;100507.16;5011170;28;20114;-88
2022/07/30 08:22:38;;;;;;;12.23;4.80;;;;;;;16.81;100.00;100478.63;5025285;28;20067;-88
2022/07/30 08:25:05;;;;;;;16.73;6.28;;;;;;;16.99;100.00;100503.00;5020141;28;20618;-88
2022/07/30 08:27:32;;;;;;;11.43;3.60;;;;;;;17.00;100.00;100472.97;5011092;28;20046;-88
2022/07/30 08:30:08;;;;;;;13.43;4.10;;;;;;;17.39;100.00;100504.72;5013456;28;20053;-88
2022/07/30 08:32:36;;;;;;;15.15;4.07;;;;;;;17.29;100.00;100508.94;5010325;28;20126;-89
2022/07/30 08:35:04;;;;;;;9.90;3.00;;;;;;;17.13;100.00;100472.97;5021037;28;20054;-88
2022/07/30 08:37:33;;;;;;;14.20;3.67;;;;;;;17.04;100.00;100492.97;5013838;28;20069;-90
2022/07/30 08:39:59;;;;;;;11.90;3.50;;;;;;;17.04;100.00;100469.16;5039293;28;20053;-88
2022/07/30 08:42:26;;;;;;;11.15;4.40;;;;;;;17.12;100.00;100486.28;5017092;28;20548;-88
2022/07/30 08:44:55;;;;;;;15.02;4.35;;;;;;;17.25;100.00;100522.38;5017162;28;20093;-87
2022/07/30 08:47:29;;;;;;;10.93;4.13;;;;;;;16.74;100.00;100453.56;5015728;28;20452;-87
2022/07/30 08:50:03;;;;;;;10.77;3.15;;;;;;;17.41;100.00;100518.69;5011752;28;20050;-87
2022/07/30 08:52:32;;;;;;;9.95;2.85;;;;;;;17.57;100.00;100515.81;5032890;28;20140;-86
2022/07/30 08:54:59;;;;;;;10.25;4.18;;;;;;;17.33;100.00;100502.50;5009426;28;20074;-86
2022/07/30 08:57:31;;;;;;;10.05;3.90;;;;;;;17.59;100.00;100529.78;5022902;28;20049;-86
2022/07/30 08:59:58;;;;;;;10.32;2.83;;;;;;;17.52;100.00;100507.34;5015051;28;20046;-86
2022/07/30 09:02:30;;;;;;;14.57;3.78;;;;;;;17.33;100.00;100486.59;5013091;28;20049;-87
2022/07/30 09:05:01;;;;;;;9.23;3.20;;;;;;;17.02;100.00;100418.16;5012866;28;20133;-88
2022/07/30 09:07:28;;;;;;;9.38;2.75;;;;;;;17.88;100.00;100537.47;5014362;28;20081;-88
2022/07/30 09:09:55;;;;;;;8.40;2.65;;;;;;;17.90;100.00;100511.72;5006510;28;20129;-87
2022/07/30 09:12:40;;;;;;;8.63;2.65;;;;;;;18.24;100.00;100526.03;5008831;28;20050;-88
2022/07/30 09:15:19;;;;;;;11.82;2.88;;;;;;;17.85;100.00;100464.38;5013811;28;20068;-88
2022/07/30 09:17:53;;;;;;;6.63;1.80;;;;;;;18.32;100.00;100521.00;5014969;28;20069;-87
2022/07/30 09:20:22;;;;;;;9.23;2.78;;;;;;;18.45;100.00;100528.94;5033685;28;20125;-86
2022/07/30 09:22:53;;;;;;;7.63;2.47;;;;;;;18.26;100.00;100481.72;5008746;28;20160;-88
2022/07/30 09:25:39;;;;;;;6.45;2.10;;;;;;;18.45;100.00;100497.13;5012458;28;20052;-88
2022/07/30 09:28:08;;;;;;;7.88;2.35;;;;;;;18.74;100.00;100537.34;5010163;28;20111;-88
2022/07/30 09:30:54;;;;;;;6.57;2.28;;;;;;;18.77;100.00;100537.13;5011180;28;20046;-88
2022/07/30 09:33:42;;;;;;;6.95;2.42;;;;;;;19.00;100.00;100541.66;5014779;28;20045;-88
2022/07/30 09:36:12;;;;;;;11.57;3.50;;;;;;;19.04;100.00;100529.88;5014739;28;20439;-91
2022/07/30 09:38:50;;;;;;;11.93;2.60;;;;;;;18.97;100.00;100517.06;5019290;28;20046;-92
2022/07/30 09:41:31;;;;;;;9.52;2.47;;;;;;;19.01;100.00;100512.38;5035721;28;20057;-91
2022/07/30 09:44:06;;;;;;;11.38;2.55;;;;;;;18.70;100.00;100512.03;5014652;28;20050;-91
2022/07/30 09:46:46;;;;;;;11.85;3.08;;;;;;;18.70;100.00;100505.88;5016266;28;20054;-91
2022/07/30 09:49:16;;;;;;;9.88;3.00;;;;;;;19.16;100.00;100500.59;5017807;28;20060;-91
2022/07/30 09:51:45;;;;;;;12.10;2.55;;;;;;;19.64;100.00;100519.91;5030787;28;20053;-91
2022/07/30 09:54:49;;;;;;;10.02;3.13;;;;;;;19.90;100.00;100496.59;5017129;28;20046;-92
2022/07/30 09:57:19;;;;;;;10.32;3.25;;;;;;;20.84;100.00;100508.38;5010282;28;20115;-91
2022/07/30 09:59:57;;;;;;;13.77;2.78;;;;;;;20.76;100.00;100449.63;5015327;28;20042;-91
2022/07/30 10:02:32;;;;;;;9.10;2.03;;;;;;;20.20;100.00;100375.44;5014325;28;20480;-90
2022/07/30 10:05:11;;;;;;;6.38;1.67;;;;;;;21.21;100.00;100485.72;5013727;28;20072;-92
2022/07/30 10:07:51;;;;;;;6.05;1.77;;;;;;;21.89;100.00;100498.50;5009116;28;20046;-91
2022/07/30 10:10:21;;;;;;;6.55;1.58;;;;;;;21.85;100.00;100471.28;5010593;28;20046;-92
2022/07/30 10:12:55;;;;;;;6.43;1.40;;;;;;;21.88;100.00;100462.16;5017989;28;20129;-90
2022/07/30 10:15:27;;;;;;;4.25;1.23;;;;;;;22.37;100.00;100421.22;5007550;28;20049;-89
2022/07/30 10:17:55;;;;;;;4.93;1.30;;;;;;;22.83;100.00;100501.50;5015298;28;20053;-90
2022/07/30 10:20:23;;;;;;;5.97;1.40;;;;;;;21.84;100.00;100455.44;5011880;28;20057;-91
2022/07/30 10:22:51;;;;;;;4.57;1.20;;;;;;;21.84;100.00;100418.13;5014609;28;20134;-92
2022/07/30 10:25:20;;;;;;;6.30;1.40;;;;;;;21.91;100.00;100427.25;5013660;28;20050;-91
2022/07/30 10:27:59;;;;;;;8.35;1.55;;;;;;;21.98;100.00;100445.19;5016537;28;20053;-91
2022/07/30 10:30:29;;;;;;;4.70;1.55;;;;;;;22.02;100.00;100466.25;5019247;28;20091;-91
2022/07/30 10:32:58;;;;;;;3.38;1.27;;;;;;;22.12;100.00;100496.44;5030498;28;20109;-91
2022/07/30 10:35:40;;;;;;;3.97;1.25;;;;;;;22.26;100.00;100469.34;5019419;28;20079;-91
2022/07/30 10:38:11;;;;;;;1.40;0.75;;;;;;;22.49;100.00;100437.09;5003663;28;20058;-90
2022/07/30 10:40:49;;;;;;;3.70;0.90;;;;;;;23.30;100.00;100482.00;5003868;28;20149;-91
2022/07/30 10:43:43;;;;;;;2.03;0.90;;;;;;;24.11;100.00;100469.78;5006110;28;20100;-90
2022/07/30 10:46:25;;;;;;;6.75;1.40;;;;;;;23.78;100.00;100430.16;5006674;28;20042;-91
2022/07/30 10:48:56;;;;;;;3.55;1.00;;;;;;;24.37;100.00;100445.78;5018513;28;20076;-91
2022/07/30 10:51:42;;;;;;;4.97;1.10;;;;;;;24.52;100.00;100486.19;5019042;28;20112;-91
2022/07/30 10:54:38;;;;;;;4.00;0.80;;;;;;;24.35;100.00;100482.56;5022913;28;21311;-91
2022/07/30 10:57:10;;;;;;;4.43;0.95;;;;;;;24.33;100.00;100474.69;5016624;28;20387;-90
2022/07/30 10:59:48;;;;;;;6.20;1.20;;;;;;;24.39;100.00;100425.88;5016406;28;20050;-90
2022/07/30 11:02:17;;;;;;;3.50;1.10;;;;;;;24.29;100.00;100477.81;5030911;28;20050;-89
2022/07/30 11:04:50;;;;;;;4.00;1.05;;;;;;;23.73;100.00;100420.88;5028347;28;20076;-90
2022/07/30 11:07:27;;;;;;;5.75;1.08;;;;;;;24.05;100.00;100477.41;5014227;28;20053;-90
2022/07/30 11:09:59;;;;;;;6.53;1.00;;;;;;;23.61;100.00;100394.38;5020049;28;20140;-90
2022/07/30 11:12:54;;;;;;;4.10;1.05;;;;;;;23.68;100.00;100352.69;5022067;28;20061;-90
2022/07/30 11:15:22;;;;;;;5.22;1.20;;;;;;;24.25;100.00;100443.31;5032856;28;20053;-89
2022/07/30 11:18:07;;;;;;;3.05;0.80;;;;;;;23.79;100.00;100420.31;5012253;28;20081;-90
2022/07/30 11:20:39;;;;;;;2.38;0.85;;;;;;;24.52;100.00;100452.25;5017399;28;20073;-89
2022/07/30 11:23:17;;;;;;;1.20;0.65;;;;;;;24.43;100.00;100461.19;5015047;28;20046;-89
2022/07/30 11:25:46;;;;;;;0.75;0.60;;;;;;;24.75;100.00;100447.25;5025644;28;20140;-89
2022/07/30 11:28:38;;;;;;;0.63;0.52;;;;;;;24.74;100.00;100450.09;5014955;28;20050;-89
2022/07/30 11:31:38;;;;;;;2.25;0.65;;;;;;;24.83;100.00;100414.34;5015397;28;20567;-88